Terminal Aerodrome Forecast
Issued by NWS

Home | Current Version | Previous Version | Text Only | Print | Product List | Glossary On
Versions: 1 2 3 4 5 6 7 8 9 10 11 12 13 14 15
000
FTUS46 KEKA 012335
TAFUKI
TAF
KUKI 012335Z 0200/0224 30014G19KT P6SM FEW040
     FM020600 35004KT P6SM SKC
     FM021700 32009G16KT P6SM SKC=

USA.gov is the U.S. government's official web portal to all federal, state and local government web resources and services.